Time;durP1;ratioP1;P1;durP2;ratioP2;P2;SDS_P1;SDS_P2;PMS_P1;PMS_P2;Temp;Humidity;BMP_temperature;BMP_pressure;BME280_temperature;BME280_humidity;BME280_pressure;Samples;Min_cycle;Max_cycle;Signal;HPM_P1;HPM_P2
2022/12/30 00:00:01;;;;;;;8.30;1.20;;;7.30;99.90;;;;;;5009984;28;20725;-60
2022/12/30 00:02:26;;;;;;;6.47;1.63;;;7.30;99.90;;;;;;5008972;28;20037;-60
2022/12/30 00:04:52;;;;;;;2.30;1.20;;;7.20;99.90;;;;;;5008300;28;20034;-60
2022/12/30 00:07:18;;;;;;;4.07;1.40;;;7.20;99.90;;;;;;5012153;28;20022;-60
2022/12/30 00:09:44;;;;;;;5.35;1.63;;;7.20;99.90;;;;;;5009693;28;20076;-60
2022/12/30 00:34:28;;;;;;;7.93;3.67;;;7.10;99.90;;;;;;5009341;28;20040;-59
2022/12/30 00:36:54;;;;;;;11.38;4.20;;;7.20;99.90;;;;;;5008424;28;20364;-60
2022/12/30 00:39:20;;;;;;;16.58;5.53;;;7.30;99.90;;;;;;5008722;28;20034;-60
2022/12/30 00:44:30;;;;;;;6.15;4.18;;;7.40;99.90;;;;;;5008792;28;20108;-59
2022/12/30 00:46:57;;;;;;;6.40;4.07;;;7.40;99.90;;;;;;5008540;28;20081;-60
2022/12/30 00:57:35;;;;;;;8.43;3.28;;;7.40;99.90;;;;;;5008859;28;20029;-59
2022/12/30 01:00:01;;;;;;;6.30;3.33;;;7.50;99.90;;;;;;5009463;28;20034;-59
2022/12/30 01:02:27;;;;;;;6.28;2.95;;;7.50;99.90;;;;;;5008971;28;20449;-60
2022/12/30 01:04:53;;;;;;;7.00;2.38;;;7.50;99.90;;;;;;5008277;28;20049;-60
2022/12/30 01:07:19;;;;;;;4.53;1.30;;;7.50;99.90;;;;;;5008565;28;20052;-60
2022/12/30 01:09:44;;;;;;;5.53;2.05;;;7.20;99.90;;;;;;5008793;28;20026;-60
2022/12/30 01:12:10;;;;;;;4.28;1.38;;;6.90;99.90;;;;;;5008764;28;20026;-61
2022/12/30 01:14:39;;;;;;;8.30;1.48;;;6.70;99.90;;;;;;5008809;28;20597;-60
2022/12/30 01:17:06;;;;;;;5.45;1.60;;;6.60;99.90;;;;;;5008551;28;20022;-59
2022/12/30 01:19:32;;;;;;;9.60;2.70;;;6.50;99.90;;;;;;5008927;28;20026;-60
2022/12/30 01:21:58;;;;;;;5.13;1.30;;;6.40;99.90;;;;;;5008447;28;20040;-60
2022/12/30 01:24:24;;;;;;;4.57;1.33;;;6.40;99.90;;;;;;5008639;28;20026;-59
2022/12/30 01:26:49;;;;;;;9.68;2.22;;;6.30;99.90;;;;;;5007900;28;20038;-60
2022/12/30 01:29:37;;;;;;;5.18;1.77;;;6.20;99.90;;;;;;5008685;28;20022;-60
2022/12/30 01:32:05;;;;;;;4.15;1.83;;;6.20;99.90;;;;;;5007396;28;20406;-60
2022/12/30 01:34:31;;;;;;;11.38;2.17;;;6.20;99.90;;;;;;5007953;28;20121;-60
2022/12/30 01:36:56;;;;;;;10.65;2.85;;;6.10;99.90;;;;;;5008578;28;20149;-61
2022/12/30 01:39:22;;;;;;;3.35;1.90;;;6.10;99.90;;;;;;5008102;28;20041;-59
2022/12/30 01:41:48;;;;;;;5.95;2.10;;;6.00;99.90;;;;;;5008423;28;20398;-59
2022/12/30 01:44:45;;;;;;;6.95;1.83;;;6.00;99.90;;;;;;5008801;28;20470;-60
2022/12/30 01:47:14;;;;;;;5.63;1.67;;;5.90;99.90;;;;;;5007855;28;20034;-59
2022/12/30 01:49:45;;;;;;;4.32;1.42;;;5.90;99.90;;;;;;5008922;28;20510;-59
2022/12/30 01:52:14;;;;;;;4.93;1.92;;;5.90;99.90;;;;;;5007385;28;20029;-61
2022/12/30 01:54:40;;;;;;;4.78;1.90;;;5.90;99.90;;;;;;5009922;28;20029;-59
2022/12/30 01:57:07;;;;;;;3.47;1.67;;;5.90;99.90;;;;;;5007431;28;20034;-60
2022/12/30 01:59:33;;;;;;;5.30;1.80;;;5.90;99.90;;;;;;5008511;28;20053;-60
2022/12/30 02:01:59;;;;;;;5.18;2.10;;;5.90;99.90;;;;;;5008257;28;20022;-61
2022/12/30 02:04:27;;;;;;;11.05;2.90;;;5.90;99.90;;;;;;5007803;28;20109;-60
2022/12/30 02:07:27;;;;;;;11.27;1.70;;;5.90;99.90;;;;;;5008630;28;20044;-60
2022/12/30 02:09:54;;;;;;;5.97;1.88;;;5.90;99.90;;;;;;5004323;28;20046;-59
2022/12/30 02:12:20;;;;;;;5.68;2.15;;;6.00;99.90;;;;;;5007868;28;20030;-59
2022/12/30 02:14:47;;;;;;;9.43;3.00;;;5.90;99.90;;;;;;5007637;28;20084;-59
2022/12/30 02:17:28;;;;;;;7.88;2.97;;;5.90;99.90;;;;;;5008181;28;20521;-60
2022/12/30 02:19:53;;;;;;;8.02;2.10;;;5.90;99.90;;;;;;5006598;28;20026;-60
2022/12/30 02:22:38;;;;;;;5.22;2.22;;;5.90;99.90;;;;;;5007496;28;20026;-59
2022/12/30 02:25:15;;;;;;;5.55;1.70;;;6.00;99.90;;;;;;5008352;28;20028;-59
2022/12/30 02:27:59;;;;;;;9.13;2.72;;;6.00;99.90;;;;;;5008302;28;20034;-59
2022/12/30 02:31:04;;;;;;;4.93;2.28;;;6.00;99.90;;;;;;5006981;28;20022;-60
2022/12/30 02:33:36;;;;;;;4.85;1.40;;;6.00;99.90;;;;;;5007185;28;20034;-60
2022/12/30 02:36:52;;;;;;;7.07;1.73;;;6.10;99.90;;;;;;5007590;28;20751;-59
2022/12/30 02:39:55;;;;;;;5.85;3.53;;;6.10;99.90;;;;;;4953426;28;20039;-60
2022/12/30 02:45:23;;;;;;;6.28;2.10;;;6.00;99.90;;;;;;5001568;28;20068;-60
2022/12/30 02:47:55;;;;;;;8.13;2.67;;;5.80;99.90;;;;;;5007340;28;20081;-60
2022/12/30 02:53:28;;;;;;;10.85;1.98;;;5.60;99.90;;;;;;5007377;28;20156;-60
2022/12/30 02:55:55;;;;;;;4.95;1.63;;;5.40;99.90;;;;;;5006370;28;20041;-60
2022/12/30 02:58:23;;;;;;;6.43;2.05;;;5.30;99.90;;;;;;5007250;28;20401;-59
2022/12/30 03:04:09;;;;;;;;;;;5.30;99.90;;;;;;5007476;28;20044;-60
2022/12/30 03:07:02;;;;;;;5.20;2.60;;;5.30;99.90;;;;;;5007939;28;19914;-60
2022/12/30 03:13:08;;;;;;;3.22;1.70;;;5.30;99.90;;;;;;5007479;28;20533;-60
2022/12/30 03:15:50;;;;;;;7.65;2.60;;;5.40;99.90;;;;;;5006792;28;20121;-60
2022/12/30 03:18:17;;;;;;;10.48;3.20;;;5.40;99.90;;;;;;5007358;28;20502;-60
2022/12/30 03:20:44;;;;;;;5.05;2.25;;;5.50;99.90;;;;;;5006910;28;20532;-59
2022/12/30 03:28:47;;;;;;;6.53;2.50;;;5.40;99.90;;;;;;5007644;28;20122;-59
2022/12/30 03:31:15;;;;;;;7.55;2.38;;;5.30;99.90;;;;;;5008066;28;20099;-59
2022/12/30 03:33:41;;;;;;;5.95;2.58;;;5.20;99.90;;;;;;5011166;28;20026;-59
2022/12/30 03:36:12;;;;;;;11.68;3.35;;;5.10;99.90;;;;;;5010745;28;20562;-60
2022/12/30 03:38:42;;;;;;;13.32;3.47;;;4.90;99.90;;;;;;5010442;28;20046;-59
2022/12/30 03:41:09;;;;;;;6.95;2.60;;;4.70;99.90;;;;;;5011732;28;20162;-60
2022/12/30 03:43:36;;;;;;;15.32;4.18;;;4.80;99.90;;;;;;5009090;28;20046;-59
2022/12/30 03:46:02;;;;;;;15.48;3.40;;;5.00;99.90;;;;;;5010353;28;20096;-59
2022/12/30 03:48:28;;;;;;;10.82;3.72;;;5.30;99.90;;;;;;5010375;28;20057;-59
2022/12/30 03:50:53;;;;;;;10.27;3.10;;;5.50;99.90;;;;;;5009942;28;20070;-60
2022/12/30 03:53:19;;;;;;;6.85;2.67;;;5.60;99.90;;;;;;5011269;28;20034;-59
2022/12/30 03:55:45;;;;;;;8.82;2.53;;;5.60;99.90;;;;;;5010033;28;20605;-60
2022/12/30 03:58:10;;;;;;;10.27;3.40;;;5.70;99.90;;;;;;5010685;28;20033;-59
2022/12/30 04:00:36;;;;;;;6.10;2.05;;;5.70;99.90;;;;;;5010784;28;20025;-60
2022/12/30 04:03:01;;;;;;;12.45;2.55;;;5.60;99.90;;;;;;5014455;28;20069;-60
2022/12/30 04:05:27;;;;;;;8.35;2.88;;;5.60;99.90;;;;;;5010016;28;20030;-60
2022/12/30 04:07:53;;;;;;;5.97;2.50;;;5.50;99.90;;;;;;5010295;28;20092;-59
2022/12/30 04:10:18;;;;;;;9.52;2.92;;;5.50;99.90;;;;;;5010026;28;20101;-59
2022/12/30 04:12:44;;;;;;;5.03;3.00;;;5.50;99.90;;;;;;5010809;28;20041;-60
2022/12/30 04:15:10;;;;;;;11.10;2.40;;;5.50;99.90;;;;;;5008461;28;20057;-60
2022/12/30 04:17:35;;;;;;;12.35;2.80;;;5.50;99.90;;;;;;5010193;28;20061;-59
2022/12/30 04:20:01;;;;;;;9.32;2.70;;;5.40;99.90;;;;;;5009548;28;20473;-60
2022/12/30 04:22:28;;;;;;;6.68;2.83;;;5.40;99.90;;;;;;5009821;28;20034;-60
2022/12/30 04:24:54;;;;;;;6.72;2.38;;;5.40;99.90;;;;;;5010481;28;20030;-59
2022/12/30 04:27:19;;;;;;;6.53;2.50;;;5.40;99.90;;;;;;5009459;28;20449;-59
2022/12/30 04:29:45;;;;;;;6.38;2.53;;;5.40;99.90;;;;;;5010019;28;20034;-60
2022/12/30 04:32:10;;;;;;;16.70;2.90;;;5.40;99.90;;;;;;5009045;28;20494;-59
2022/12/30 04:34:36;;;;;;;7.50;2.60;;;5.30;99.90;;;;;;5010006;28;20022;-60
2022/12/30 04:37:02;;;;;;;13.10;2.97;;;5.30;99.90;;;;;;5010243;28;20558;-60
2022/12/30 04:39:27;;;;;;;7.63;2.72;;;5.30;99.90;;;;;;5009080;28;20037;-59
2022/12/30 04:41:53;;;;;;;6.55;2.80;;;5.30;99.90;;;;;;5009359;28;20030;-59
2022/12/30 04:44:18;;;;;;;11.27;2.90;;;5.40;99.90;;;;;;5008498;28;20502;-59
2022/12/30 04:46:44;;;;;;;13.77;3.42;;;5.40;99.90;;;;;;5009307;28;20384;-60
2022/12/30 04:49:10;;;;;;;10.57;2.83;;;5.50;99.90;;;;;;5009448;28;20033;-59
2022/12/30 04:51:36;;;;;;;10.38;2.88;;;5.40;99.90;;;;;;5009617;28;20537;-59
2022/12/30 04:54:01;;;;;;;11.23;3.13;;;5.50;99.90;;;;;;5009416;28;20153;-59
2022/12/30 04:56:27;;;;;;;6.47;3.30;;;5.50;99.90;;;;;;5008683;28;20026;-59
2022/12/30 04:58:54;;;;;;;6.25;2.97;;;5.50;99.90;;;;;;5009121;28;20038;-59
2022/12/30 05:01:20;;;;;;;10.48;2.97;;;5.50;99.90;;;;;;5009170;28;20052;-59
2022/12/30 05:03:45;;;;;;;11.30;3.08;;;5.40;99.90;;;;;;5009752;28;20105;-61
2022/12/30 05:06:11;;;;;;;8.15;3.00;;;5.40;99.90;;;;;;5009213;28;20494;-59
2022/12/30 05:08:36;;;;;;;8.07;3.45;;;5.30;99.90;;;;;;5008896;28;20034;-59
2022/12/30 05:11:02;;;;;;;10.07;4.13;;;5.10;99.90;;;;;;5009158;28;20041;-59
2022/12/30 05:13:28;;;;;;;7.57;3.42;;;5.10;99.90;;;;;;5008607;28;20036;-59
2022/12/30 05:15:53;;;;;;;10.98;3.85;;;5.10;99.90;;;;;;5009192;28;20085;-59
2022/12/30 05:18:19;;;;;;;9.10;5.13;;;5.10;99.90;;;;;;5009284;28;20064;-60
2022/12/30 05:20:44;;;;;;;15.35;4.22;;;5.10;99.90;;;;;;5007055;28;20018;-59
2022/12/30 05:26:13;;;;;;;9.27;3.90;;;5.10;99.90;;;;;;5008657;28;20034;-59
2022/12/30 05:26:14;;;;;;;7.15;4.18;;;5.10;99.90;;;;;;5008095;28;20570;-60
2022/12/30 05:28:44;;;;;;;13.10;3.97;;;5.00;99.90;;;;;;5008844;28;20640;-59
2022/12/30 05:31:10;;;;;;;6.80;3.20;;;4.90;99.90;;;;;;5008402;28;20034;-59
2022/12/30 05:33:35;;;;;;;5.10;3.30;;;4.80;99.90;;;;;;5008874;28;20053;-61
2022/12/30 05:36:01;;;;;;;11.48;4.00;;;4.80;99.90;;;;;;5008492;28;20061;-59
2022/12/30 05:38:27;;;;;;;8.05;4.10;;;4.80;99.90;;;;;;5008010;28;20084;-60
2022/12/30 05:40:52;;;;;;;6.35;4.50;;;4.80;99.90;;;;;;5008567;28;20392;-60
2022/12/30 05:43:18;;;;;;;11.73;5.97;;;4.70;99.90;;;;;;5008445;28;20483;-59
2022/12/30 05:45:43;;;;;;;10.98;4.50;;;4.80;99.90;;;;;;5008630;28;20093;-60
2022/12/30 05:48:09;;;;;;;8.27;4.25;;;4.80;99.90;;;;;;5008894;28;20386;-59
2022/12/30 05:50:35;;;;;;;14.50;5.40;;;4.80;99.90;;;;;;5007844;28;20081;-60
2022/12/30 05:53:00;;;;;;;9.40;4.65;;;4.80;99.90;;;;;;5008677;28;20034;-60
2022/12/30 05:55:26;;;;;;;6.50;4.20;;;4.80;99.90;;;;;;5007201;28;20030;-59
2022/12/30 05:57:51;;;;;;;18.02;4.78;;;4.80;99.90;;;;;;5009845;28;20017;-60
2022/12/30 06:00:17;;;;;;;14.27;4.97;;;4.80;99.90;;;;;;5008759;28;20032;-59
2022/12/30 06:02:43;;;;;;;8.13;5.53;;;4.90;99.90;;;;;;4993577;28;20137;-60
2022/12/30 06:05:09;;;;;;;11.43;5.55;;;4.90;99.90;;;;;;5008026;28;20080;-60
2022/12/30 06:07:35;;;;;;;8.82;5.90;;;5.00;99.90;;;;;;5007505;28;20565;-61
2022/12/30 06:10:00;;;;;;;9.38;5.28;;;5.10;99.90;;;;;;5008813;28;20038;-60
2022/12/30 06:12:26;;;;;;;8.93;5.35;;;5.10;99.90;;;;;;5007994;28;20041;-60
2022/12/30 06:14:51;;;;;;;15.25;5.00;;;5.20;99.90;;;;;;5007641;28;20200;-60
2022/12/30 06:17:17;;;;;;;11.90;5.93;;;5.20;99.90;;;;;;5008146;28;20044;-60
2022/12/30 06:19:43;;;;;;;11.25;5.25;;;5.30;99.90;;;;;;5007720;28;20057;-60
2022/12/30 06:22:08;;;;;;;10.52;5.13;;;5.40;99.90;;;;;;5008043;28;20025;-61
2022/12/30 06:24:34;;;;;;;11.45;5.53;;;5.50;99.90;;;;;;5009467;28;20021;-59
2022/12/30 06:26:59;;;;;;;13.93;5.78;;;5.60;99.90;;;;;;5007407;28;20052;-60
2022/12/30 06:29:25;;;;;;;10.82;4.75;;;5.60;99.90;;;;;;4995017;28;20088;-59
2022/12/30 06:31:50;;;;;;;8.95;4.20;;;5.70;99.90;;;;;;5007066;28;20560;-60
2022/12/30 06:34:16;;;;;;;8.00;3.70;;;5.80;99.90;;;;;;5008233;28;20026;-60
2022/12/30 06:36:42;;;;;;;9.57;3.95;;;5.80;99.90;;;;;;5007572;28;20022;-59
2022/12/30 06:39:07;;;;;;;12.57;4.53;;;5.90;99.90;;;;;;5007538;28;20042;-61
2022/12/30 06:41:33;;;;;;;8.32;4.80;;;6.00;99.90;;;;;;5007916;28;20029;-59
2022/12/30 06:43:59;;;;;;;11.02;3.50;;;6.00;99.90;;;;;;5007288;28;20055;-59
2022/12/30 06:46:24;;;;;;;9.02;3.38;;;6.10;99.90;;;;;;5007672;28;20054;-59
2022/12/30 06:48:50;;;;;;;6.55;3.20;;;6.10;99.90;;;;;;5007854;28;20032;-59
2022/12/30 06:51:15;;;;;;;9.02;3.92;;;6.10;99.90;;;;;;5007253;28;20057;-59
2022/12/30 06:53:41;;;;;;;8.00;2.72;;;6.10;99.90;;;;;;5007994;28;20030;-60
2022/12/30 06:56:07;;;;;;;7.95;2.60;;;6.10;99.90;;;;;;5006983;28;20492;-59
2022/12/30 06:58:33;;;;;;;7.35;3.08;;;6.00;99.90;;;;;;5007917;28;20030;-59
2022/12/30 07:00:59;;;;;;;11.90;2.72;;;6.00;99.90;;;;;;5008431;28;20518;-59
2022/12/30 07:03:24;;;;;;;13.18;3.10;;;5.90;99.90;;;;;;5007578;28;20042;-58
2022/12/30 07:05:50;;;;;;;6.80;3.05;;;5.90;99.90;;;;;;5009082;28;20109;-59
2022/12/30 07:08:16;;;;;;;11.70;4.75;;;5.90;99.90;;;;;;5011507;28;20037;-59
2022/12/30 07:10:41;;;;;;;14.05;2.88;;;5.90;99.90;;;;;;5011640;28;20497;-59
2022/12/30 07:13:07;;;;;;;6.50;2.55;;;5.80;99.90;;;;;;5010964;28;20032;-59
2022/12/30 07:15:33;;;;;;;12.55;3.25;;;5.70;99.90;;;;;;5011657;28;20036;-59
2022/12/30 07:17:58;;;;;;;10.70;3.53;;;5.60;99.90;;;;;;5011373;28;20426;-59
2022/12/30 07:20:24;;;;;;;10.13;3.22;;;5.50;99.90;;;;;;5010760;28;20038;-59
2022/12/30 07:22:50;;;;;;;13.07;3.97;;;5.30;99.90;;;;;;5011513;28;20506;-59
2022/12/30 07:25:15;;;;;;;5.10;3.67;;;5.20;99.90;;;;;;5010461;28;20014;-59
2022/12/30 07:27:41;;;;;;;9.32;3.85;;;5.10;99.90;;;;;;5011778;28;20429;-59
2022/12/30 07:30:07;;;;;;;7.70;4.05;;;5.00;99.90;;;;;;5010673;28;20037;-58
2022/12/30 07:32:33;;;;;;;12.73;3.70;;;4.90;99.90;;;;;;5010558;28;20185;-59
2022/12/30 07:34:58;;;;;;;8.23;3.78;;;4.80;99.90;;;;;;5011000;28;20109;-59
2022/12/30 07:37:24;;;;;;;8.15;4.10;;;4.80;99.90;;;;;;5010116;28;20486;-59
2022/12/30 07:39:49;;;;;;;10.93;4.15;;;4.70;99.90;;;;;;5010872;28;20026;-58
2022/12/30 07:42:15;;;;;;;10.43;4.95;;;4.80;99.90;;;;;;5010156;28;20030;-59
2022/12/30 07:44:41;;;;;;;6.80;3.75;;;4.90;99.90;;;;;;5010221;28;20076;-60
2022/12/30 07:47:07;;;;;;;9.80;4.10;;;5.00;99.90;;;;;;5010232;28;20132;-59
2022/12/30 07:49:32;;;;;;;10.18;4.00;;;5.10;99.90;;;;;;5008156;28;20041;-59
2022/12/30 07:51:58;;;;;;;13.73;4.50;;;5.20;99.90;;;;;;5010788;28;20010;-60
2022/12/30 07:54:23;;;;;;;9.23;4.10;;;5.30;99.90;;;;;;5009732;28;20022;-59
2022/12/30 07:56:49;;;;;;;12.23;4.10;;;5.30;99.90;;;;;;5010258;28;20112;-59
2022/12/30 07:59:15;;;;;;;7.43;3.60;;;5.40;99.90;;;;;;5009905;28;20018;-59
2022/12/30 08:01:40;;;;;;;7.80;4.18;;;5.40;99.90;;;;;;5009334;28;20030;-60
2022/12/30 08:04:06;;;;;;;13.68;4.97;;;5.50;99.90;;;;;;5009072;28;20105;-60
2022/12/30 08:06:32;;;;;;;8.57;4.68;;;5.60;99.90;;;;;;5010183;28;20029;-60
2022/12/30 08:09:02;;;;;;;8.85;4.07;;;5.60;99.90;;;;;;5010631;28;20030;-59
2022/12/30 08:11:28;;;;;;;5.72;3.83;;;5.70;99.90;;;;;;5009164;28;20554;-59
2022/12/30 08:13:54;;;;;;;14.93;4.10;;;5.70;99.90;;;;;;5010284;28;20030;-59
2022/12/30 08:16:19;;;;;;;19.55;4.40;;;5.80;99.90;;;;;;5010193;28;20105;-60
2022/12/30 08:18:45;;;;;;;14.07;4.22;;;5.70;99.90;;;;;;5009919;28;20160;-61
2022/12/30 08:21:13;;;;;;;10.73;3.97;;;5.60;99.90;;;;;;5009325;28;20034;-59
2022/12/30 08:23:40;;;;;;;11.85;4.20;;;5.60;99.90;;;;;;5009572;28;20160;-59
2022/12/30 08:26:08;;;;;;;10.43;4.53;;;5.50;99.90;;;;;;5010018;28;20033;-59
2022/12/30 08:28:34;;;;;;;7.80;5.18;;;5.40;99.90;;;;;;5010164;28;20116;-59
2022/12/30 08:31:08;;;;;;;14.38;5.38;;;5.40;99.90;;;;;;5009659;28;20902;-59
2022/12/30 08:33:34;;;;;;;16.42;5.25;;;5.40;99.90;;;;;;5010449;28;20046;-60
2022/12/30 08:36:01;;;;;;;7.72;4.57;;;5.40;99.90;;;;;;5009104;28;20034;-59
2022/12/30 08:38:27;;;;;;;10.73;4.65;;;5.50;99.90;;;;;;5009238;28;20145;-60
2022/12/30 08:40:53;;;;;;;9.85;5.68;;;5.60;99.90;;;;;;5009772;28;20192;-59
2022/12/30 08:43:20;;;;;;;17.02;4.93;;;5.70;99.90;;;;;;5009470;28;20565;-59
2022/12/30 08:45:56;;;;;;;10.77;5.07;;;5.70;99.90;;;;;;5009862;28;20053;-59
2022/12/30 08:48:21;;;;;;;7.30;4.75;;;5.80;99.90;;;;;;5008137;28;20030;-60
2022/12/30 08:50:47;;;;;;;14.75;4.85;;;5.90;99.90;;;;;;5008967;28;20159;-60
2022/12/30 08:53:12;;;;;;;7.50;4.03;;;5.90;99.90;;;;;;5008883;28;20056;-59
2022/12/30 08:55:38;;;;;;;15.50;4.53;;;6.00;99.90;;;;;;5008759;28;20026;-59
2022/12/30 08:58:04;;;;;;;11.55;4.70;;;6.10;99.90;;;;;;5009558;28;20037;-59
2022/12/30 09:00:29;;;;;;;10.45;3.55;;;6.20;99.90;;;;;;5006908;28;20117;-60
2022/12/30 09:02:55;;;;;;;10.23;3.67;;;6.20;99.90;;;;;;5009120;28;20042;-60
2022/12/30 09:05:21;;;;;;;13.75;4.03;;;6.30;99.90;;;;;;5007667;28;20376;-60
2022/12/30 09:07:47;;;;;;;8.07;4.18;;;6.50;99.90;;;;;;5008972;28;20030;-59
2022/12/30 09:10:13;;;;;;;9.70;3.45;;;6.70;99.90;;;;;;5007227;28;20152;-60
2022/12/30 09:12:39;;;;;;;5.22;3.25;;;6.80;99.90;;;;;;5017243;28;20420;-60
2022/12/30 09:15:06;;;;;;;7.05;3.33;;;7.00;99.90;;;;;;5008270;28;20117;-59
2022/12/30 09:17:32;;;;;;;4.43;2.58;;;7.10;99.90;;;;;;5007730;28;20030;-59
2022/12/30 09:19:57;;;;;;;10.38;2.65;;;7.20;99.90;;;;;;4992603;28;20505;-60
2022/12/30 09:22:24;;;;;;;7.78;3.25;;;7.20;99.90;;;;;;5007337;28;20030;-60
2022/12/30 09:24:49;;;;;;;6.90;2.92;;;7.30;99.90;;;;;;5007324;28;20064;-59
2022/12/30 09:27:15;;;;;;;7.43;3.08;;;7.30;99.90;;;;;;4991869;28;20029;-60
2022/12/30 09:29:40;;;;;;;29.40;6.72;;;7.40;99.90;;;;;;5006308;28;20037;-59
2022/12/30 09:32:06;;;;;;;8.25;2.65;;;7.70;99.90;;;;;;5007832;28;20503;-60
2022/12/30 09:34:32;;;;;;;7.70;3.70;;;8.00;99.90;;;;;;5007386;28;20041;-59
2022/12/30 09:36:57;;;;;;;10.13;2.35;;;8.00;99.90;;;;;;5008057;28;20084;-60
2022/12/30 09:39:30;;;;;;;7.63;2.42;;;7.90;99.90;;;;;;5008081;28;20123;-60
2022/12/30 09:44:53;;;;;;;9.25;2.38;;;7.60;99.90;;;;;;5006847;28;20060;-59
2022/12/30 09:47:23;;;;;;;8.43;2.83;;;7.50;99.90;;;;;;5007357;28;20018;-60
2022/12/30 09:49:57;;;;;;;12.30;3.92;;;7.40;99.90;;;;;;5007617;28;20093;-59
2022/12/30 09:52:32;;;;;;;15.90;2.92;;;7.30;99.90;;;;;;5006866;28;20121;-60
2022/12/30 09:55:06;;;;;;;12.05;3.95;;;7.30;99.90;;;;;;5006571;28;20030;-60
2022/12/30 09:57:35;;;;;;;7.07;3.22;;;7.30;99.90;;;;;;5006962;28;20038;-60
2022/12/30 10:00:15;;;;;;;9.07;2.40;;;7.30;99.90;;;;;;5007626;28;20044;-60
2022/12/30 10:02:46;;;;;;;5.95;2.65;;;7.40;99.90;;;;;;5006362;28;20034;-60
2022/12/30 10:05:12;;;;;;;;;;;7.40;99.90;;;;;;5007039;28;20509;-59
2022/12/30 10:07:45;;;;;;;9.55;2.33;;;7.50;99.90;;;;;;5007937;28;19914;-60
2022/12/30 10:10:24;;;;;;;9.48;2.25;;;7.50;99.90;;;;;;5007090;28;20018;-60
2022/12/30 10:12:58;;;;;;;5.72;2.30;;;7.50;99.90;;;;;;5007039;28;20018;-59
2022/12/30 10:15:44;;;;;;;9.15;2.92;;;7.60;99.90;;;;;;5006553;28;20030;-60
2022/12/30 10:18:37;;;;;;;11.77;2.65;;;7.50;99.90;;;;;;5007878;28;20030;-60
2022/12/30 10:21:07;;;;;;;13.48;3.22;;;7.60;99.90;;;;;;5004867;28;20041;-60
2022/12/30 10:23:54;;;;;;;15.32;3.65;;;7.60;99.90;;;;;;5006842;28;20041;-60
2022/12/30 10:26:47;;;;;;;9.63;3.67;;;7.70;99.90;;;;;;5006598;28;20049;-60
2022/12/30 10:29:31;;;;;;;6.53;3.47;;;7.70;99.90;;;;;;5007150;28;20572;-60
2022/12/30 10:32:00;;;;;;;6.53;2.38;;;7.80;99.90;;;;;;5005874;28;20060;-59
2022/12/30 10:34:30;;;;;;;5.80;2.42;;;7.90;99.90;;;;;;5006543;28;20129;-59
2022/12/30 10:37:13;;;;;;;6.13;1.85;;;7.90;99.90;;;;;;5005607;28;20022;-60
2022/12/30 10:39:49;;;;;;;7.60;2.42;;;8.00;99.90;;;;;;4995594;28;20099;-59
2022/12/30 10:42:33;;;;;;;4.68;2.10;;;8.00;99.90;;;;;;5011281;28;20110;-59
2022/12/30 10:45:20;;;;;;;9.82;2.15;;;8.00;99.90;;;;;;5010481;28;20054;-59
2022/12/30 10:47:58;;;;;;;6.13;2.25;;;8.10;99.90;;;;;;5008948;28;20121;-61
2022/12/30 10:50:32;;;;;;;5.90;2.15;;;8.10;99.90;;;;;;5009929;28;20030;-62
2022/12/30 10:53:01;;;;;;;5.40;2.47;;;8.20;99.90;;;;;;5011426;28;20021;-61
2022/12/30 10:55:31;;;;;;;9.02;2.95;;;8.20;99.90;;;;;;5010024;28;20038;-59
2022/12/30 10:58:11;;;;;;;3.83;1.63;;;8.10;99.90;;;;;;5011248;28;20045;-59
2022/12/30 11:00:40;;;;;;;7.00;2.00;;;8.00;99.90;;;;;;5004847;28;20044;-60
2022/12/30 11:03:30;;;;;;;7.78;2.30;;;7.90;99.90;;;;;;4995960;28;20037;-60
2022/12/30 11:05:57;;;;;;;4.60;2.42;;;7.90;99.90;;;;;;5009539;28;20038;-60
2022/12/30 11:08:27;;;;;;;7.20;2.08;;;8.00;99.90;;;;;;5011192;28;20022;-60
2022/12/30 11:11:04;;;;;;;6.85;2.20;;;8.20;99.90;;;;;;5010729;28;20067;-60
2022/12/30 11:16:26;;;;;;;7.90;2.45;;;8.80;99.90;;;;;;5010048;28;20084;-60
2022/12/30 11:18:52;;;;;;;4.60;1.90;;;9.10;99.90;;;;;;4987846;28;20158;-60
2022/12/30 11:21:44;;;;;;;6.43;2.80;;;9.20;99.90;;;;;;5009924;28;20026;-61
2022/12/30 11:24:15;;;;;;;5.57;1.65;;;9.20;99.90;;;;;;4977665;28;20034;-60
2022/12/30 11:26:46;;;;;;;8.65;1.40;;;9.20;99.90;;;;;;4992256;28;20034;-60
2022/12/30 11:29:15;;;;;;;;;;;9.20;99.90;;;;;;5010493;28;20026;-61
2022/12/30 11:31:47;;;;;;;9.73;2.25;;;9.10;99.90;;;;;;5008924;28;20000;-61
2022/12/30 11:34:34;;;;;;;2.92;1.40;;;9.10;99.90;;;;;;4998549;28;20034;-60
2022/12/30 11:37:19;;;;;;;7.57;1.83;;;8.90;99.90;;;;;;5009327;28;20049;-62
2022/12/30 11:39:45;;;;;;;4.88;1.50;;;8.70;99.90;;;;;;4975073;28;20080;-59
2022/12/30 11:42:28;;;;;;;5.45;1.60;;;8.70;99.90;;;;;;5004867;28;20058;-59
2022/12/30 11:45:19;;;;;;;3.47;1.40;;;8.80;99.90;;;;;;4996076;28;20030;-62
2022/12/30 11:47:48;;;;;;;6.05;1.50;;;8.90;99.90;;;;;;5009513;28;20033;-60
2022/12/30 11:50:17;;;;;;;9.18;1.42;;;8.80;99.90;;;;;;5009986;28;20117;-62
2022/12/30 11:52:49;;;;;;;5.50;1.80;;;8.80;99.90;;;;;;5008463;28;20029;-60
2022/12/30 11:55:25;;;;;;;6.63;1.17;;;8.70;99.90;;;;;;5008782;28;20124;-61
2022/12/30 11:57:55;;;;;;;5.20;1.08;;;8.70;99.90;;;;;;5007896;28;20041;-60
2022/12/30 12:00:21;;;;;;;3.50;1.00;;;8.60;99.90;;;;;;5010086;28;20537;-61
2022/12/30 12:03:14;;;;;;;3.25;1.13;;;8.60;99.90;;;;;;5009447;28;20108;-59
2022/12/30 12:05:44;;;;;;;7.38;1.10;;;8.70;99.90;;;;;;4983146;28;20034;-60
2022/12/30 12:08:25;;;;;;;4.35;1.00;;;9.00;99.90;;;;;;5010364;28;20570;-59
2022/12/30 12:11:07;;;;;;;3.08;0.70;;;9.30;99.90;;;;;;5008481;28;20124;-60
2022/12/30 12:13:57;;;;;;;2.60;0.80;;;9.50;99.90;;;;;;5009281;28;20029;-59
2022/12/30 12:16:34;;;;;;;2.55;0.85;;;9.50;99.90;;;;;;5014556;28;20117;-60
2022/12/30 12:19:39;;;;;;;1.50;0.60;;;9.50;99.90;;;;;;5009190;28;20042;-59
2022/12/30 12:22:15;;;;;;;13.98;1.02;;;9.20;99.90;;;;;;5004727;28;20034;-60
2022/12/30 12:24:44;;;;;;;4.13;0.70;;;9.10;99.90;;;;;;5008143;28;20109;-60
2022/12/30 12:27:12;;;;;;;2.80;1.23;;;9.20;99.90;;;;;;5007929;28;20057;-59
2022/12/30 12:29:38;;;;;;;2.08;1.23;;;9.10;99.90;;;;;;5007746;28;20084;-60
2022/12/30 12:32:12;;;;;;;2.00;0.77;;;9.10;99.90;;;;;;5009454;28;20524;-60
2022/12/30 12:34:49;;;;;;;1.98;0.60;;;8.90;99.90;;;;;;5010173;28;20025;-60
2022/12/30 12:37:27;;;;;;;1.33;0.63;;;8.70;99.90;;;;;;5008921;28;20022;-59
2022/12/30 12:40:10;;;;;;;4.85;0.75;;;8.40;99.90;;;;;;5009677;28;20551;-60
2022/12/30 12:42:51;;;;;;;2.72;0.85;;;8.30;99.90;;;;;;5009517;28;20046;-60
2022/12/30 12:45:40;;;;;;;4.35;0.80;;;8.20;99.90;;;;;;5009628;28;20037;-58
2022/12/30 12:48:27;;;;;;;2.20;0.88;;;8.20;99.90;;;;;;5008582;28;20409;-59
2022/12/30 12:50:52;;;;;;;2.40;0.70;;;8.50;99.90;;;;;;5008555;28;20125;-60
2022/12/30 12:53:39;;;;;;;2.67;0.80;;;8.70;99.90;;;;;;5009724;28;20113;-59
2022/12/30 12:56:30;;;;;;;2.13;0.70;;;8.70;99.90;;;;;;5009201;28;20153;-59
2022/12/30 12:59:08;;;;;;;1.63;0.90;;;8.70;99.90;;;;;;5013965;28;20053;-59
2022/12/30 13:01:55;;;;;;;1.15;0.68;;;8.60;99.90;;;;;;5009049;28;20022;-60
2022/12/30 13:04:35;;;;;;;4.18;0.90;;;8.60;99.90;;;;;;5007478;28;20022;-60
2022/12/30 13:07:13;;;;;;;1.63;0.93;;;8.50;99.90;;;;;;4993934;28;20018;-60
2022/12/30 13:09:38;;;;;;;2.20;0.68;;;8.60;99.90;;;;;;5009297;28;20042;-60
2022/12/30 13:12:17;;;;;;;5.18;1.00;;;8.50;99.90;;;;;;5008505;28;20100;-60
2022/12/30 13:14:43;;;;;;;1.45;0.70;;;8.40;99.90;;;;;;5009269;28;20569;-61
2022/12/30 13:17:36;;;;;;;4.22;1.08;;;8.30;99.90;;;;;;5008544;28;20073;-61
2022/12/30 13:20:21;;;;;;;2.22;0.80;;;8.10;99.90;;;;;;5008862;28;20477;-61
2022/12/30 13:22:48;;;;;;;2.25;1.30;;;8.00;99.90;;;;;;5008839;28;20060;-60
2022/12/30 13:25:28;;;;;;;1.98;1.50;;;8.00;99.90;;;;;;5046957;28;20376;-61
2022/12/30 13:27:55;;;;;;;6.30;1.10;;;8.00;99.90;;;;;;4989445;28;20027;-60
2022/12/30 13:30:24;;;;;;;1.27;0.95;;;8.20;99.90;;;;;;5006903;28;20084;-61
2022/12/30 13:33:08;;;;;;;3.05;1.10;;;8.20;99.90;;;;;;5027072;28;20025;-62
2022/12/30 13:36:09;;;;;;;3.38;1.20;;;8.20;99.90;;;;;;5025353;28;20498;-61
2022/12/30 13:39:06;;;;;;;2.67;1.23;;;8.10;99.90;;;;;;5015494;28;20032;-60
2022/12/30 13:41:35;;;;;;;2.03;1.27;;;7.90;99.90;;;;;;5008791;28;20289;-61
2022/12/30 13:44:03;;;;;;;2.85;1.30;;;7.70;99.90;;;;;;5023569;28;20752;-61
2022/12/30 13:46:34;;;;;;;3.88;1.40;;;7.60;99.90;;;;;;5021336;28;20041;-60
2022/12/30 13:49:14;;;;;;;1.98;1.48;;;7.50;99.90;;;;;;5025361;28;20121;-60
2022/12/30 13:51:40;;;;;;;3.17;1.50;;;7.50;99.90;;;;;;5026389;28;20658;-60
2022/12/30 13:54:08;;;;;;;2.92;1.40;;;7.40;99.90;;;;;;5025058;28;20026;-59
2022/12/30 13:56:38;;;;;;;2.88;1.30;;;7.30;99.90;;;;;;5033546;28;20541;-61
2022/12/30 13:59:04;;;;;;;1.45;1.20;;;7.20;99.90;;;;;;5031051;28;20034;-60
2022/12/30 14:01:39;;;;;;;1.20;1.10;;;7.10;99.90;;;;;;5027163;28;20124;-61
2022/12/30 14:04:10;;;;;;;1.50;1.10;;;7.00;99.90;;;;;;5028828;28;20184;-59
2022/12/30 14:06:52;;;;;;;2.65;1.55;;;6.90;99.90;;;;;;5026765;28;20109;-61
2022/12/30 14:09:29;;;;;;;2.22;1.52;;;6.80;99.90;;;;;;5031268;28;20022;-61